Time;durP1;ratioP1;P1;durP2;ratioP2;P2;SDS_P1;SDS_P2;PMS_P1;PMS_P2;Temp;Humidity;BMP_temperature;BMP_pressure;BME280_temperature;BME280_humidity;BME280_pressure;Samples;Min_cycle;Max_cycle;Signal;HPM_P1;HPM_P2
2021/11/26 00:03:29;;;;;;;21.75;10.90;;;;;;;4.07;61.64;100352.69;8011174;28;20045;-66
2021/11/26 00:07:20;;;;;;;21.63;10.73;;;;;;;4.08;61.49;100346.56;8012347;28;20051;-66
2021/11/26 00:11:11;;;;;;;25.38;10.77;;;;;;;4.10;61.30;100349.94;8016624;28;20082;-66
2021/11/26 00:19:12;;;;;;;24.55;11.85;;;;;;;4.12;61.32;100342.91;8024185;28;20029;-66
2021/11/26 00:23:02;;;;;;;21.40;11.00;;;;;;;4.13;61.24;100342.00;8020608;28;20046;-66
2021/11/26 00:26:53;;;;;;;17.92;10.65;;;;;;;4.14;61.37;100326.31;8011971;28;20032;-67
2021/11/26 00:30:45;;;;;;;25.23;12.75;;;;;;;4.13;61.50;100316.84;8035760;28;20040;-66
2021/11/26 00:34:36;;;;;;;25.15;11.48;;;;;;;4.18;61.52;100316.63;8014809;28;20158;-66
2021/11/26 00:38:27;;;;;;;26.33;11.85;;;;;;;4.18;61.30;100304.47;8017546;28;20032;-66
2021/11/26 00:42:18;;;;;;;24.08;11.45;;;;;;;4.18;61.32;100306.22;8016727;28;20043;-66
2021/11/26 00:46:08;;;;;;;22.38;10.50;;;;;;;4.17;61.17;100294.97;8014410;28;20033;-66
2021/11/26 00:49:59;;;;;;;23.52;11.30;;;;;;;4.14;61.81;100279.53;8013527;28;20074;-66
2021/11/26 00:53:49;;;;;;;21.35;11.30;;;;;;;4.16;61.52;100272.50;8012584;28;20039;-67
2021/11/26 00:57:41;;;;;;;22.20;10.05;;;;;;;4.14;61.32;100268.28;8010032;28;20040;-66
2021/11/26 01:01:31;;;;;;;23.65;12.02;;;;;;;4.12;61.38;100262.31;8010798;28;20043;-66
2021/11/26 01:05:22;;;;;;;25.45;11.73;;;;;;;4.13;61.40;100264.00;8024312;28;20412;-66
2021/11/26 01:09:12;;;;;;;24.90;10.50;;;;;;;4.13;61.06;100254.44;8023198;28;20037;-66
2021/11/26 01:13:03;;;;;;;22.55;10.90;;;;;;;4.12;61.24;100250.16;8024314;28;20036;-66
2021/11/26 01:16:54;;;;;;;24.48;10.98;;;;;;;4.11;61.25;100251.06;8014114;28;20025;-66
2021/11/26 01:20:45;;;;;;;24.88;10.50;;;;;;;4.09;61.21;100241.69;8018294;28;20119;-66
2021/11/26 01:24:35;;;;;;;20.30;9.27;;;;;;;4.08;61.15;100239.97;8013366;28;20047;-66
2021/11/26 01:28:26;;;;;;;24.25;10.57;;;;;;;4.02;61.03;100219.50;8012131;28;20036;-66
2021/11/26 01:32:17;;;;;;;18.27;9.20;;;;;;;3.99;61.06;100217.88;8024336;28;20033;-66
2021/11/26 01:36:07;;;;;;;20.10;9.95;;;;;;;3.95;61.05;100213.75;8011158;28;20055;-66
2021/11/26 01:39:58;;;;;;;20.30;9.52;;;;;;;3.91;60.97;100214.81;8011142;28;20132;-67
2021/11/26 01:43:49;;;;;;;23.58;10.48;;;;;;;3.87;60.98;100204.66;8009732;28;20098;-66
2021/11/26 01:47:39;;;;;;;17.92;9.40;;;;;;;3.80;60.85;100194.56;8008794;28;20094;-66
2021/11/26 01:51:30;;;;;;;23.05;10.57;;;;;;;3.77;60.69;100189.53;8008534;28;20609;-66
2021/11/26 01:55:20;;;;;;;20.40;10.00;;;;;;;3.72;60.61;100180.28;8023115;28;20642;-66
2021/11/26 01:59:11;;;;;;;21.13;10.45;;;;;;;3.67;60.62;100179.66;8019680;28;20386;-66
2021/11/26 02:03:02;;;;;;;18.20;8.40;;;;;;;3.61;60.56;100169.56;8018863;28;20729;-66
2021/11/26 02:06:52;;;;;;;14.15;8.18;;;;;;;3.60;60.69;100160.94;8009309;28;20032;-66
2021/11/26 02:10:44;;;;;;;16.75;8.15;;;;;;;3.59;60.62;100161.84;8027413;28;20396;-66
2021/11/26 02:14:34;;;;;;;16.95;8.57;;;;;;;3.56;60.67;100156.81;8016459;28;20504;-66
2021/11/26 02:18:25;;;;;;;14.18;7.07;;;;;;;3.56;60.57;100142.97;8014648;28;20045;-66
2021/11/26 02:22:16;;;;;;;16.42;7.70;;;;;;;3.55;60.84;100143.88;8010470;28;20123;-66
2021/11/26 02:26:06;;;;;;;13.65;7.25;;;;;;;3.56;60.92;100135.19;8008975;28;20059;-66
2021/11/26 02:29:57;;;;;;;13.75;7.10;;;;;;;3.56;60.81;100123.03;8010052;28;20065;-66
2021/11/26 02:33:48;;;;;;;14.35;7.28;;;;;;;3.55;60.86;100121.34;8011403;28;20037;-66
2021/11/26 02:37:40;;;;;;;15.57;5.97;;;;;;;3.54;61.01;100113.63;8006748;28;20041;-66
2021/11/26 02:41:30;;;;;;;13.23;6.22;;;;;;;3.52;60.90;100105.09;8014971;28;20397;-66
2021/11/26 02:45:22;;;;;;;11.30;6.20;;;;;;;3.51;61.00;100093.84;8020395;28;20603;-66
2021/11/26 02:49:13;;;;;;;10.02;5.50;;;;;;;3.50;60.99;100089.56;8019285;28;20477;-66
2021/11/26 02:53:05;;;;;;;13.90;5.85;;;;;;;3.51;60.80;100085.22;8017568;28;20090;-66
2021/11/26 02:56:55;;;;;;;13.23;5.80;;;;;;;3.51;60.76;100082.63;8016167;28;20024;-66
2021/11/26 03:00:51;;;;;;;10.88;5.03;;;;;;;3.51;61.00;100067.88;8011473;28;20051;-66
2021/11/26 03:04:41;;;;;;;16.23;5.47;;;;;;;3.51;60.94;100061.84;8011969;28;20028;-66
2021/11/26 03:08:33;;;;;;;10.15;4.88;;;;;;;3.52;60.99;100063.53;8010911;28;20116;-66
2021/11/26 03:12:24;;;;;;;9.30;4.95;;;;;;;3.52;61.00;100053.16;8008908;28;20512;-66
2021/11/26 03:16:15;;;;;;;16.85;5.38;;;;;;;3.54;60.92;100046.94;8007584;28;20090;-66
2021/11/26 03:20:06;;;;;;;10.77;5.38;;;;;;;3.55;60.86;100040.84;8004260;28;20043;-66
2021/11/26 03:23:56;;;;;;;14.13;6.03;;;;;;;3.56;60.75;100037.34;8006320;28;20033;-66
2021/11/26 03:27:47;;;;;;;12.98;6.00;;;;;;;3.60;61.17;100040.63;8012713;28;20029;-66
2021/11/26 03:31:37;;;;;;;12.15;5.32;;;;;;;3.62;61.34;100030.97;8017505;28;20029;-66
2021/11/26 03:35:28;;;;;;;14.10;5.70;;;;;;;3.66;61.35;100029.91;8017660;28;20078;-66
2021/11/26 03:39:19;;;;;;;14.57;6.28;;;;;;;3.68;61.12;100020.28;8026328;28;20086;-66
2021/11/26 03:43:10;;;;;;;13.43;6.38;;;;;;;3.69;61.18;100006.38;8013118;28;20041;-66
2021/11/26 03:47:00;;;;;;;24.08;6.80;;;;;;;3.65;61.06;99995.31;8011795;28;20449;-66
2021/11/26 03:50:51;;;;;;;11.23;6.65;;;;;;;3.71;61.36;99988.94;8012234;28;20033;-66
2021/11/26 03:54:42;;;;;;;15.82;6.88;;;;;;;3.75;61.28;99975.72;8004296;28;20041;-66
2021/11/26 03:58:33;;;;;;;13.63;6.90;;;;;;;3.78;61.06;99979.91;8007260;28;20040;-66
2021/11/26 04:02:23;;;;;;;12.18;6.35;;;;;;;3.79;61.18;99969.44;8010506;28;20394;-66
2021/11/26 04:06:14;;;;;;;15.25;6.55;;;;;;;3.82;61.14;99971.03;8007324;28;20037;-67
2021/11/26 04:10:06;;;;;;;12.50;6.10;;;;;;;3.82;61.50;99958.03;8010808;28;20051;-66
2021/11/26 04:13:57;;;;;;;10.23;5.95;;;;;;;3.86;61.36;99954.41;8019056;28;20041;-66
2021/11/26 04:17:50;;;;;;;17.25;7.18;;;;;;;3.88;61.26;99939.56;8016808;28;20025;-66
2021/11/26 04:21:40;;;;;;;11.55;5.97;;;;;;;3.89;61.12;99930.00;8016281;28;20032;-66
2021/11/26 04:25:32;;;;;;;12.70;6.32;;;;;;;3.87;61.16;99924.03;8011079;28;20037;-66
2021/11/26 04:29:22;;;;;;;11.50;6.30;;;;;;;3.90;61.32;99921.28;8009521;28;20087;-66
2021/11/26 04:33:13;;;;;;;13.10;6.13;;;;;;;3.87;61.49;99906.69;8034979;28;20033;-66
2021/11/26 04:37:03;;;;;;;9.55;5.53;;;;;;;3.92;61.28;99893.44;8017476;28;20111;-66
2021/11/26 04:40:54;;;;;;;16.52;6.72;;;;;;;3.92;61.35;99890.84;8016660;28;20028;-66
2021/11/26 04:44:44;;;;;;;15.23;5.90;;;;;;;3.94;61.29;99887.28;8014714;28;20147;-66
2021/11/26 04:48:35;;;;;;;11.60;5.93;;;;;;;3.94;61.41;99876.03;8012304;28;20037;-66
2021/11/26 04:52:26;;;;;;;8.93;5.03;;;;;;;3.97;61.37;99866.31;8011145;28;20041;-66
2021/11/26 04:56:16;;;;;;;15.00;5.28;;;;;;;3.98;61.25;99868.00;8010307;28;20025;-66
2021/11/26 05:00:08;;;;;;;10.75;5.25;;;;;;;3.98;61.25;99861.94;8026770;28;20047;-66
2021/11/26 05:03:59;;;;;;;8.57;4.18;;;;;;;3.99;61.45;99845.41;8018951;28;20040;-66
2021/11/26 05:07:49;;;;;;;9.20;4.85;;;;;;;3.97;61.62;99835.13;8021336;28;20032;-66
2021/11/26 05:11:40;;;;;;;9.43;4.53;;;;;;;4.00;61.23;99834.09;8011775;28;20036;-66
2021/11/26 05:15:32;;;;;;;9.65;5.25;;;;;;;4.00;61.45;99827.16;8014572;28;20040;-66
2021/11/26 05:19:23;;;;;;;8.88;4.85;;;;;;;4.03;61.53;99829.56;8016725;28;20032;-66
2021/11/26 05:23:13;;;;;;;12.27;4.97;;;;;;;4.04;61.40;99826.06;8008023;28;20108;-66
2021/11/26 05:27:04;;;;;;;7.78;4.25;;;;;;;4.04;61.41;99818.25;8011365;28;20025;-66
2021/11/26 05:30:54;;;;;;;9.68;4.25;;;;;;;4.05;61.32;99812.16;8015339;28;20037;-66
2021/11/26 05:34:45;;;;;;;8.40;4.45;;;;;;;4.06;61.43;99818.19;8018668;28;20051;-66
2021/11/26 05:38:36;;;;;;;6.90;4.53;;;;;;;4.06;61.67;99803.44;8009380;28;20102;-66
2021/11/26 05:42:26;;;;;;;11.63;4.88;;;;;;;4.06;61.58;99802.59;8007313;28;20485;-66
2021/11/26 05:46:17;;;;;;;6.35;3.75;;;;;;;4.05;61.30;99796.56;8019469;28;20036;-66
2021/11/26 05:50:11;;;;;;;9.32;3.90;;;;;;;4.05;61.54;99795.72;8015674;28;20523;-66
2021/11/26 05:54:01;;;;;;;10.73;4.38;;;;;;;4.07;61.72;99796.47;8018095;28;20091;-67
2021/11/26 05:57:53;;;;;;;7.80;4.25;;;;;;;4.05;61.55;99793.94;8011973;28;20428;-66
2021/11/26 06:01:44;;;;;;;6.20;4.10;;;;;;;4.05;61.66;99785.31;8017971;28;20067;-65
2021/11/26 06:05:35;;;;;;;9.95;4.70;;;;;;;4.03;61.49;99777.59;8017317;28;20076;-65
2021/11/26 06:09:25;;;;;;;4.85;3.47;;;;;;;4.04;61.67;99773.25;8015288;28;20615;-65
2021/11/26 06:13:16;;;;;;;6.38;3.88;;;;;;;4.06;61.69;99768.81;8019538;28;20040;-65
2021/11/26 06:17:07;;;;;;;6.75;3.70;;;;;;;4.05;61.65;99770.56;8013098;28;20115;-65
2021/11/26 06:20:57;;;;;;;8.50;3.88;;;;;;;4.06;61.75;99755.81;8010351;28;20036;-65
2021/11/26 06:24:48;;;;;;;10.50;3.88;;;;;;;4.03;61.96;99749.00;8008703;28;20090;-65
2021/11/26 06:28:38;;;;;;;7.13;3.50;;;;;;;4.06;61.81;99751.47;8009997;28;20852;-65
2021/11/26 06:32:29;;;;;;;5.45;3.25;;;;;;;4.08;61.70;99738.34;8033682;28;20116;-65
2021/11/26 06:36:20;;;;;;;4.80;3.10;;;;;;;4.09;61.58;99732.25;8022062;28;20140;-65
2021/11/26 06:40:11;;;;;;;5.60;3.00;;;;;;;4.11;61.79;99730.41;8020231;28;20115;-65
2021/11/26 06:44:02;;;;;;;11.25;3.22;;;;;;;4.09;61.77;99733.09;8018940;28;20065;-65
2021/11/26 06:47:52;;;;;;;7.05;3.08;;;;;;;4.08;61.65;99721.00;8025522;28;20631;-65
2021/11/26 06:51:43;;;;;;;5.45;3.10;;;;;;;4.09;61.71;99714.88;8006769;28;20037;-65
2021/11/26 06:55:34;;;;;;;7.40;2.53;;;;;;;4.08;61.76;99713.22;8012742;28;20036;-66
2021/11/26 06:59:25;;;;;;;5.32;3.13;;;;;;;4.09;61.77;99706.25;8023889;28;20040;-66
2021/11/26 07:03:16;;;;;;;7.70;2.80;;;;;;;4.08;61.73;99699.38;8007302;28;20067;-65
2021/11/26 07:07:06;;;;;;;6.20;2.83;;;;;;;4.06;61.84;99683.88;8008385;28;20556;-65
2021/11/26 07:10:57;;;;;;;5.38;2.70;;;;;;;4.08;61.76;99683.78;8023019;28;20119;-65
2021/11/26 07:14:48;;;;;;;8.82;3.13;;;;;;;4.09;62.09;99685.47;8005640;28;20112;-65
2021/11/26 07:18:38;;;;;;;5.95;3.05;;;;;;;4.11;61.67;99681.03;8035983;28;20156;-66
2021/11/26 07:22:29;;;;;;;8.05;3.50;;;;;;;4.09;61.76;99670.72;8018065;28;20028;-65
2021/11/26 07:26:19;;;;;;;7.97;3.72;;;;;;;4.09;61.51;99667.25;8005401;28;20037;-65
2021/11/26 07:30:11;;;;;;;6.25;3.50;;;;;;;4.11;61.70;99668.84;8007897;28;20097;-65
2021/11/26 07:34:01;;;;;;;6.38;3.78;;;;;;;4.13;61.57;99663.56;8013396;28;20075;-65
2021/11/26 07:37:52;;;;;;;8.15;4.50;;;;;;;4.15;61.62;99653.94;8010206;28;20495;-66
2021/11/26 07:41:43;;;;;;;8.10;4.13;;;;;;;4.16;61.54;99659.00;8012379;28;20120;-65
2021/11/26 07:45:34;;;;;;;10.00;4.22;;;;;;;4.17;61.53;99658.09;8005870;28;20616;-65
2021/11/26 07:49:28;;;;;;;7.25;4.20;;;;;;;4.16;61.89;99642.56;8005611;28;20731;-66
2021/11/26 07:53:18;;;;;;;10.15;5.25;;;;;;;4.15;61.84;99641.75;8006503;28;20033;-65
2021/11/26 07:57:10;;;;;;;9.88;5.43;;;;;;;4.13;61.87;99640.16;8005436;28;20029;-65
2021/11/26 08:01:01;;;;;;;9.63;5.30;;;;;;;4.11;61.97;99629.84;8004510;28;20692;-65
2021/11/26 08:04:52;;;;;;;8.88;4.63;;;;;;;4.11;61.94;99623.84;8007281;28;20065;-65
2021/11/26 08:08:42;;;;;;;7.82;4.28;;;;;;;4.09;61.91;99623.09;8011497;28;20032;-65
2021/11/26 08:12:33;;;;;;;11.20;4.07;;;;;;;4.09;62.17;99610.09;8017809;28;20040;-66
2021/11/26 08:16:24;;;;;;;9.20;3.97;;;;;;;4.09;61.89;99599.69;8010825;28;20021;-66
2021/11/26 08:20:15;;;;;;;8.82;2.83;;;;;;;4.09;61.60;99594.50;8022089;28;20033;-66
2021/11/26 08:24:08;;;;;;;8.15;3.85;;;;;;;4.09;61.83;99579.75;8015356;28;20044;-65
2021/11/26 08:27:58;;;;;;;11.18;3.70;;;;;;;4.11;61.70;99572.69;8010574;28;20037;-65
2021/11/26 08:31:49;;;;;;;10.43;4.00;;;;;;;4.13;61.77;99570.00;8011359;28;20645;-65
2021/11/26 08:35:40;;;;;;;11.65;3.92;;;;;;;4.14;61.61;99564.72;8011532;28;20091;-65
2021/11/26 08:39:30;;;;;;;7.82;3.20;;;;;;;4.15;61.82;99560.34;8010845;28;20036;-65
2021/11/26 08:43:21;;;;;;;14.30;4.13;;;;;;;4.15;61.70;99557.75;8011189;28;20810;-65
2021/11/26 08:47:11;;;;;;;13.00;3.78;;;;;;;4.14;61.65;99550.88;8010592;28;20106;-66
2021/11/26 08:51:02;;;;;;;8.55;3.35;;;;;;;4.12;61.86;99540.56;8010723;28;20045;-65
2021/11/26 08:54:53;;;;;;;9.38;3.72;;;;;;;4.15;61.76;99540.38;8026603;28;20100;-65
2021/11/26 08:58:46;;;;;;;8.75;4.05;;;;;;;4.14;61.71;99533.53;8010377;28;20029;-65
2021/11/26 09:02:37;;;;;;;8.82;4.72;;;;;;;4.15;61.75;99529.16;8010865;28;20059;-65
2021/11/26 09:06:28;;;;;;;7.20;3.30;;;;;;;4.14;61.68;99524.88;8009855;28;20050;-65
2021/11/26 09:10:18;;;;;;;11.93;4.13;;;;;;;4.14;61.50;99514.50;8010155;28;20432;-65
2021/11/26 09:14:09;;;;;;;9.43;4.20;;;;;;;4.13;61.63;99515.41;8022357;28;20115;-65
2021/11/26 09:18:00;;;;;;;28.50;7.07;;;;;;;4.14;61.57;99519.69;8008671;28;20037;-65
2021/11/26 09:21:50;;;;;;;8.35;4.35;;;;;;;4.14;61.48;99510.13;8010314;28;20508;-65
2021/11/26 09:25:41;;;;;;;12.40;4.60;;;;;;;4.14;61.60;99498.91;8009494;28;20024;-65
2021/11/26 09:29:32;;;;;;;11.73;5.38;;;;;;;4.15;61.73;99497.97;8009253;28;20550;-65
2021/11/26 09:33:22;;;;;;;10.55;4.50;;;;;;;4.13;61.74;99486.81;8009061;28;20044;-65
2021/11/26 09:37:13;;;;;;;10.73;5.38;;;;;;;4.15;61.69;99492.78;8009958;28;20032;-66
2021/11/26 09:41:06;;;;;;;7.93;4.07;;;;;;;4.14;61.59;99484.16;8009764;28;20642;-65
2021/11/26 09:45:00;;;;;;;13.43;4.75;;;;;;;4.17;61.57;99480.50;8024820;28;20112;-65
2021/11/26 09:48:51;;;;;;;11.35;5.30;;;;;;;4.16;61.62;99466.66;8008573;28;20037;-65
2021/11/26 09:52:42;;;;;;;12.63;5.95;;;;;;;4.14;61.45;99457.31;8009393;28;20040;-65
2021/11/26 09:56:34;;;;;;;9.60;4.80;;;;;;;4.13;61.72;99447.84;8012296;28;20025;-66
2021/11/26 10:00:25;;;;;;;14.15;4.90;;;;;;;4.14;61.23;99437.34;8006932;28;20052;-65
2021/11/26 10:04:18;;;;;;;15.25;5.30;;;;;;;4.14;61.42;99439.13;8015698;28;20037;-65
2021/11/26 10:08:08;;;;;;;14.60;5.82;;;;;;;4.13;61.12;99427.88;8007812;28;20489;-65
2021/11/26 10:12:09;;;;;;;13.82;4.75;;;;;;;4.12;61.24;99422.78;8013437;28;20035;-65
2021/11/26 10:16:10;;;;;;;7.72;4.50;;;;;;;4.13;61.24;99401.91;8007526;28;20436;-65
2021/11/26 10:20:08;;;;;;;11.50;4.53;;;;;;;4.13;61.00;99399.28;8012140;28;20116;-65
2021/11/26 10:23:58;;;;;;;11.82;4.57;;;;;;;4.17;61.22;99392.13;8001039;28;20072;-65
2021/11/26 10:27:51;;;;;;;9.40;4.43;;;;;;;4.19;60.92;99377.28;8004127;28;20043;-65
2021/11/26 10:31:41;;;;;;;9.50;4.00;;;;;;;4.17;60.95;99369.59;8008054;28;20036;-65
2021/11/26 10:35:37;;;;;;;10.38;3.90;;;;;;;4.17;60.73;99359.19;7994950;28;20079;-65
2021/11/26 10:39:29;;;;;;;10.43;4.53;;;;;;;4.19;60.60;99346.09;8003770;28;20029;-65
2021/11/26 10:43:26;;;;;;;11.85;4.28;;;;;;;4.20;60.66;99329.56;8008831;28;20038;-65
2021/11/26 10:59:27;;;;;;;5.72;2.30;;;;;;;4.25;60.54;99285.91;8018641;28;20047;-65
2021/11/26 11:03:23;;;;;;;7.57;2.97;;;;;;;4.28;60.30;99272.72;8003905;28;20165;-65
2021/11/26 11:07:15;;;;;;;3.25;2.22;;;;;;;4.31;60.34;99262.13;8001578;28;20115;-65
2021/11/26 11:11:06;;;;;;;5.68;2.20;;;;;;;4.35;60.18;99245.41;8004291;28;20036;-65
2021/11/26 11:15:00;;;;;;;6.10;2.50;;;;;;;4.40;60.07;99237.28;8003293;28;20041;-65
2021/11/26 11:18:50;;;;;;;4.93;2.20;;;;;;;4.44;59.99;99228.34;8019308;28;20531;-65
2021/11/26 11:22:42;;;;;;;5.35;2.10;;;;;;;4.51;60.00;99221.81;8001727;28;20036;-65
2021/11/26 11:26:32;;;;;;;8.60;2.28;;;;;;;4.58;59.90;99212.66;8006607;28;20037;-65
2021/11/26 11:30:24;;;;;;;4.47;2.08;;;;;;;4.64;59.63;99207.88;8005293;28;20068;-65
2021/11/26 11:34:18;;;;;;;9.30;2.30;;;;;;;4.68;59.63;99188.53;8006624;28;20123;-65
2021/11/26 11:38:10;;;;;;;8.68;2.50;;;;;;;4.70;59.65;99183.19;8004552;28;20040;-65
2021/11/26 11:42:01;;;;;;;4.32;2.10;;;;;;;4.70;59.62;99183.19;8002534;28;20037;-66
2021/11/26 11:45:59;;;;;;;4.55;1.92;;;;;;;4.69;59.67;99171.13;8005864;28;20090;-65
2021/11/26 11:49:50;;;;;;;4.97;2.47;;;;;;;4.68;59.34;99154.72;8010333;28;20546;-66
2021/11/26 11:53:41;;;;;;;6.50;2.05;;;;;;;4.72;59.57;99144.94;8003445;28;20190;-65
2021/11/26 11:57:31;;;;;;;6.25;2.05;;;;;;;4.76;59.56;99135.13;8002291;28;20473;-66
2021/11/26 12:01:23;;;;;;;5.22;2.05;;;;;;;4.77;59.58;99124.63;8002915;28;20112;-65
2021/11/26 12:05:26;;;;;;;4.88;2.17;;;;;;;4.80;59.23;99118.38;8009156;28;20685;-65
2021/11/26 12:09:22;;;;;;;6.65;2.22;;;;;;;4.79;59.44;99101.09;7997191;28;20029;-65
2021/11/26 12:13:22;;;;;;;8.27;2.40;;;;;;;4.82;59.45;99090.47;8003413;28;20689;-65
2021/11/26 12:17:29;;;;;;;4.55;1.92;;;;;;;4.82;59.43;99072.25;8002792;28;20039;-65
2021/11/26 12:21:45;;;;;;;3.42;1.88;;;;;;;4.83;59.26;99071.31;8000997;28;20119;-65
2021/11/26 12:29:45;;;;;;;4.03;2.13;;;;;;;4.89;59.38;99048.31;8003155;28;20734;-65
2021/11/26 12:33:36;;;;;;;4.80;2.20;;;;;;;4.91;59.43;99038.63;8007050;28;20063;-65
2021/11/26 12:37:33;;;;;;;5.88;2.53;;;;;;;4.96;59.13;99020.06;7999686;28;20064;-66
2021/11/26 12:41:39;;;;;;;3.92;1.80;;;;;;;4.96;59.18;99009.66;8002738;28;20033;-69
2021/11/26 12:45:35;;;;;;;6.65;2.08;;;;;;;5.00;59.16;99000.69;8003463;28;20091;-68
2021/11/26 12:53:32;;;;;;;8.38;2.33;;;;;;;5.02;59.11;98975.41;8005505;28;20039;-68
2021/11/26 12:57:31;;;;;;;7.35;2.10;;;;;;;5.02;59.04;98958.00;8007911;28;20033;-68
2021/11/26 13:01:21;;;;;;;5.05;1.88;;;;;;;5.02;59.35;98947.59;8009124;28;20091;-69
2021/11/26 13:05:15;;;;;;;7.30;2.22;;;;;;;5.06;59.41;98937.81;8006982;28;20037;-67
2021/11/26 13:09:07;;;;;;;7.40;1.92;;;;;;;5.08;59.25;98928.09;8006308;28;20037;-67
2021/11/26 13:12:59;;;;;;;5.30;2.13;;;;;;;5.10;59.13;98913.22;8023117;28;20029;-67
2021/11/26 13:16:55;;;;;;;6.53;1.73;;;;;;;5.11;59.08;98902.66;8008472;28;20017;-67
2021/11/26 13:20:59;;;;;;;6.25;2.00;;;;;;;5.10;59.08;98900.19;8007399;28;20037;-67
2021/11/26 13:24:51;;;;;;;7.53;1.90;;;;;;;5.12;59.19;98883.50;8004624;28;20029;-67
2021/11/26 13:28:45;;;;;;;5.80;1.30;;;;;;;5.16;59.27;98877.16;8006617;28;20079;-67
2021/11/26 13:32:36;;;;;;;5.50;1.67;;;;;;;5.17;58.73;98865.81;8007501;28;20120;-68
2021/11/26 13:36:30;;;;;;;8.55;2.08;;;;;;;5.19;58.75;98852.66;8003355;28;20025;-66
2021/11/26 13:40:21;;;;;;;9.30;2.10;;;;;;;5.20;58.92;98856.94;8009844;28;20036;-66
2021/11/26 13:44:17;;;;;;;3.67;1.60;;;;;;;5.20;58.95;98851.72;8012604;28;20577;-65
2021/11/26 13:48:08;;;;;;;5.25;1.60;;;;;;;5.18;58.88;98832.81;8005902;28;20040;-65
2021/11/26 13:52:06;;;;;;;2.78;1.23;;;;;;;5.17;58.68;98833.75;8007513;28;20037;-65
2021/11/26 13:55:57;;;;;;;4.75;1.65;;;;;;;5.14;58.89;98826.16;8006549;28;20101;-65
2021/11/26 13:59:49;;;;;;;2.10;1.20;;;;;;;5.09;58.69;98817.84;8008004;28;20032;-65
2021/11/26 14:03:41;;;;;;;3.35;1.20;;;;;;;5.06;58.62;98798.06;8006070;28;20041;-65
2021/11/26 14:07:31;;;;;;;3.67;1.30;;;;;;;5.03;58.81;98789.66;8014163;28;20109;-65
2021/11/26 14:11:28;;;;;;;7.13;1.40;;;;;;;5.01;58.77;98770.75;8006776;28;20036;-66
2021/11/26 14:15:22;;;;;;;3.55;1.42;;;;;;;5.00;58.56;98767.31;8003378;28;20037;-66
2021/11/26 14:19:15;;;;;;;2.45;1.15;;;;;;;4.98;58.54;98769.19;8004886;28;20082;-65
2021/11/26 14:23:08;;;;;;;4.25;1.30;;;;;;;4.96;58.39;98749.47;8011757;28;20588;-66
2021/11/26 14:26:59;;;;;;;4.28;1.50;;;;;;;4.93;58.38;98734.91;8008968;28;20036;-65
2021/11/26 14:30:50;;;;;;;1.65;1.10;;;;;;;4.89;58.35;98732.66;8002069;28;20029;-65
2021/11/26 14:34:43;;;;;;;2.42;1.42;;;;;;;4.83;58.32;98717.50;8004760;28;20557;-65
2021/11/26 14:38:44;;;;;;;3.00;1.45;;;;;;;4.77;58.18;98700.63;8001027;28;20068;-65
2021/11/26 14:42:35;;;;;;;2.15;1.40;;;;;;;4.73;58.43;98689.59;8004282;28;20037;-65
2021/11/26 14:46:25;;;;;;;2.50;1.38;;;;;;;4.70;58.78;98676.81;8003551;28;20066;-65
2021/11/26 14:50:20;;;;;;;4.95;1.70;;;;;;;4.68;58.57;98668.34;8004362;28;20041;-65
2021/11/26 14:54:14;;;;;;;2.53;1.40;;;;;;;4.68;58.48;98659.69;8006798;28;20482;-66
2021/11/26 14:58:04;;;;;;;3.92;1.67;;;;;;;4.67;58.61;98647.63;8005728;28;20095;-65
2021/11/26 15:01:55;;;;;;;4.15;1.50;;;;;;;4.61;58.29;98638.50;8003848;28;20485;-65
2021/11/26 15:05:46;;;;;;;3.08;1.40;;;;;;;4.63;58.47;98628.84;8003515;28;20122;-65
2021/11/26 15:09:37;;;;;;;5.15;1.27;;;;;;;4.59;58.34;98621.38;8002071;28;20041;-65
2021/11/26 15:13:27;;;;;;;3.35;1.38;;;;;;;4.59;58.65;98611.00;8007266;28;20120;-65
2021/11/26 15:17:19;;;;;;;2.58;1.25;;;;;;;4.55;58.46;98600.00;8018744;28;20028;-65
2021/11/26 15:21:11;;;;;;;2.65;1.52;;;;;;;4.54;58.35;98597.50;8004285;28;20036;-65
2021/11/26 15:25:02;;;;;;;6.22;1.73;;;;;;;4.51;58.38;98582.97;8003916;28;20484;-65
2021/11/26 15:28:53;;;;;;;7.57;1.70;;;;;;;4.53;58.41;98583.69;8002474;28;20045;-65
2021/11/26 15:32:43;;;;;;;3.10;1.27;;;;;;;4.52;58.27;98579.44;8003132;28;20708;-66
2021/11/26 15:36:35;;;;;;;1.83;1.33;;;;;;;4.51;58.64;98571.75;8005731;28;20033;-65
2021/11/26 15:40:27;;;;;;;3.33;1.50;;;;;;;4.52;58.64;98569.03;8003472;28;20040;-65
2021/11/26 15:44:19;;;;;;;2.95;1.40;;;;;;;4.53;58.43;98556.84;8004395;28;20432;-65
2021/11/26 15:48:10;;;;;;;3.60;1.48;;;;;;;4.53;58.36;98554.25;8002787;28;20039;-65
2021/11/26 15:52:00;;;;;;;3.38;1.42;;;;;;;4.53;58.24;98551.66;8003510;28;20037;-66
2021/11/26 15:55:52;;;;;;;1.70;1.23;;;;;;;4.53;58.52;98536.03;8018110;28;20025;-66
2021/11/26 15:59:42;;;;;;;1.75;1.13;;;;;;;4.54;58.49;98527.31;8005190;28;20045;-66
2021/11/26 16:03:33;;;;;;;3.35;1.48;;;;;;;4.56;58.23;98522.81;8004477;28;20040;-66
2021/11/26 16:07:24;;;;;;;3.63;1.73;;;;;;;4.55;58.40;98511.59;8001056;28;20021;-66
2021/11/26 16:11:15;;;;;;;2.13;1.30;;;;;;;4.55;58.40;98503.78;8003469;28;20250;-66
2021/11/26 16:15:07;;;;;;;2.40;1.30;;;;;;;4.54;58.40;98507.34;8004403;28;20051;-67
2021/11/26 16:18:57;;;;;;;2.00;1.42;;;;;;;4.54;58.77;98490.91;8002656;28;20121;-66
2021/11/26 16:22:48;;;;;;;4.28;1.75;;;;;;;4.53;58.51;98481.44;8003929;28;20029;-66
2021/11/26 16:26:40;;;;;;;1.55;1.25;;;;;;;4.55;58.51;98469.16;8006638;28;20602;-66
2021/11/26 16:30:35;;;;;;;4.30;1.50;;;;;;;4.53;58.78;98469.28;8009359;28;20055;-66
2021/11/26 16:34:33;;;;;;;3.08;1.42;;;;;;;4.55;58.69;98457.00;8010389;28;20033;-67
2021/11/26 16:38:24;;;;;;;4.60;1.20;;;;;;;4.54;58.72;98452.72;8006104;28;20041;-66
2021/11/26 16:42:18;;;;;;;3.60;1.63;;;;;;;4.54;58.65;98441.50;8009440;28;20038;-66
2021/11/26 16:46:08;;;;;;;2.35;1.52;;;;;;;4.54;58.51;98431.09;8009068;28;20044;-66
2021/11/26 16:49:59;;;;;;;1.27;0.98;;;;;;;4.52;58.41;98423.44;8009683;28;20037;-66
2021/11/26 16:53:49;;;;;;;6.43;1.70;;;;;;;4.54;58.59;98425.91;8007296;28;20033;-66
2021/11/26 16:57:40;;;;;;;2.03;1.45;;;;;;;4.53;58.89;98414.66;8010110;28;20584;-66
2021/11/26 17:01:32;;;;;;;2.33;1.50;;;;;;;4.56;58.65;98405.81;8007918;28;20119;-66
2021/11/26 17:05:22;;;;;;;3.25;1.20;;;;;;;4.55;58.45;98399.78;8006189;28;20143;-66
2021/11/26 17:09:14;;;;;;;1.90;1.30;;;;;;;4.55;58.58;98386.78;8006819;28;20574;-66
2021/11/26 17:13:05;;;;;;;1.27;1.08;;;;;;;4.55;58.75;98379.00;8007192;28;20032;-66
2021/11/26 17:16:56;;;;;;;3.00;1.42;;;;;;;4.55;58.56;98371.19;8006853;28;20025;-66
2021/11/26 17:20:47;;;;;;;1.55;1.10;;;;;;;4.56;58.65;98369.41;8007847;28;20040;-66
2021/11/26 17:24:38;;;;;;;2.88;1.00;;;;;;;4.55;58.71;98358.19;8007134;28;20041;-66
2021/11/26 17:28:33;;;;;;;2.20;1.10;;;;;;;4.54;58.93;98372.13;8006548;28;20058;-69
2021/11/26 17:32:23;;;;;;;2.33;1.00;;;;;;;4.54;58.82;98360.91;8011840;28;20051;-69
2021/11/26 17:36:14;;;;;;;1.50;0.90;;;;;;;4.49;58.72;98366.47;8005679;28;20025;-69
2021/11/26 17:40:07;;;;;;;1.58;1.00;;;;;;;4.45;58.83;98352.06;8016086;28;20043;-69
2021/11/26 17:43:59;;;;;;;0.90;0.90;;;;;;;4.40;59.01;98345.59;8007478;28;20540;-69
2021/11/26 17:47:49;;;;;;;2.67;0.80;;;;;;;4.37;59.16;98333.66;8010250;28;20033;-69
2021/11/26 17:51:40;;;;;;;1.25;1.00;;;;;;;4.37;59.14;98330.22;8014301;28;20056;-69
2021/11/26 17:55:31;;;;;;;1.58;0.90;;;;;;;4.37;58.98;98319.84;8012975;28;20041;-69
2021/11/26 17:59:22;;;;;;;1.45;1.10;;;;;;;4.36;58.93;98308.59;8014013;28;20036;-70
2021/11/26 18:03:18;;;;;;;0.85;0.70;;;;;;;4.36;59.01;98313.00;8014548;28;20032;-69
2021/11/26 18:07:16;;;;;;;2.33;0.90;;;;;;;4.35;59.07;98306.97;8007924;28;20553;-69
2021/11/26 18:11:11;;;;;;;0.95;0.88;;;;;;;4.35;59.11;98298.34;8024011;28;20032;-71
2021/11/26 18:15:08;;;;;;;1.58;0.82;;;;;;;4.34;58.98;98297.53;8006046;28;20544;-70
2021/11/26 18:18:59;;;;;;;1.00;0.80;;;;;;;4.29;58.99;98281.47;8010071;28;20037;-69
2021/11/26 18:22:51;;;;;;;0.80;0.60;;;;;;;4.30;59.01;98283.13;8028342;28;20025;-69
2021/11/26 18:26:41;;;;;;;0.80;0.80;;;;;;;4.28;58.89;98288.44;8020176;28;20333;-70
2021/11/26 18:30:33;;;;;;;0.70;0.70;;;;;;;4.23;59.22;98276.78;8020913;28;20571;-68
2021/11/26 18:34:23;;;;;;;0.77;0.77;;;;;;;4.24;59.20;98286.22;8005170;28;20041;-68
2021/11/26 18:38:14;;;;;;;1.30;1.08;;;;;;;4.24;59.17;98273.22;8010690;28;20044;-71
2021/11/26 18:42:07;;;;;;;0.70;0.70;;;;;;;4.25;59.12;98264.47;8011742;28;20119;-70